Time;durP1;ratioP1;P1;durP2;ratioP2;P2;SDS_P1;SDS_P2;PMS_P1;PMS_P2;Temp;Humidity;BMP_temperature;BMP_pressure;BME280_temperature;BME280_humidity;BME280_pressure;Samples;Min_cycle;Max_cycle;Signal;HPM_P1;HPM_P2
2021/01/09 00:00:51;;;;;;;4.30;1.80;;;2.00;94.90;;;;;;5032677;28;20115;-78
2021/01/09 00:03:18;;;;;;;5.87;2.47;;;2.00;94.90;;;;;;5018612;28;20046;-77
2021/01/09 00:05:44;;;;;;;6.43;3.10;;;2.00;94.90;;;;;;5021169;28;20038;-76
2021/01/09 00:08:12;;;;;;;6.50;3.30;;;1.90;94.90;;;;;;5019262;28;20437;-77
2021/01/09 00:10:39;;;;;;;8.53;4.20;;;1.90;95.00;;;;;;5026202;28;20049;-71
2021/01/09 00:13:07;;;;;;;6.53;3.50;;;1.90;95.00;;;;;;5012806;28;20145;-71
2021/01/09 00:15:34;;;;;;;6.83;3.77;;;1.90;95.00;;;;;;5000567;28;20056;-72
2021/01/09 00:18:01;;;;;;;7.97;3.93;;;1.80;95.00;;;;;;5011842;28;20069;-71
2021/01/09 00:20:27;;;;;;;7.40;4.17;;;1.80;95.00;;;;;;4997825;28;20086;-71
2021/01/09 00:22:54;;;;;;;6.33;2.90;;;1.90;95.10;;;;;;5026477;28;20045;-71
2021/01/09 00:25:21;;;;;;;6.57;3.23;;;1.90;95.00;;;;;;5017536;28;20054;-72
2021/01/09 00:27:47;;;;;;;9.27;3.90;;;1.90;95.00;;;;;;5025326;28;20045;-72
2021/01/09 00:30:16;;;;;;;9.87;4.77;;;1.90;95.00;;;;;;5020137;28;20517;-72
2021/01/09 00:32:42;;;;;;;7.87;3.90;;;1.90;95.00;;;;;;5025578;28;20042;-72
2021/01/09 00:35:09;;;;;;;7.80;3.63;;;1.90;95.00;;;;;;5016510;28;20405;-71
2021/01/09 00:37:36;;;;;;;6.30;3.53;;;1.80;95.00;;;;;;5021851;28;20555;-72
2021/01/09 00:40:04;;;;;;;8.37;3.33;;;1.80;95.00;;;;;;5030842;28;20095;-72
2021/01/09 00:42:31;;;;;;;6.57;3.07;;;1.80;95.00;;;;;;5029522;28;20052;-72
2021/01/09 00:44:57;;;;;;;8.87;2.90;;;1.80;95.00;;;;;;5016373;28;20042;-72
2021/01/09 00:47:29;;;;;;;5.70;2.53;;;1.70;95.00;;;;;;5017646;28;20050;-71
2021/01/09 00:49:55;;;;;;;7.27;3.20;;;1.70;95.00;;;;;;5017231;28;20089;-72
2021/01/09 00:52:22;;;;;;;5.47;2.73;;;1.70;95.10;;;;;;5019742;28;20076;-71
2021/01/09 00:54:48;;;;;;;9.23;3.00;;;1.70;95.10;;;;;;5016448;28;20108;-71
2021/01/09 00:57:16;;;;;;;6.87;3.17;;;1.70;95.10;;;;;;5006898;28;20050;-71
2021/01/09 00:59:42;;;;;;;7.20;3.20;;;1.70;95.10;;;;;;5001246;28;20493;-71
2021/01/09 01:02:12;;;;;;;7.10;3.10;;;1.70;95.10;;;;;;5012662;28;20363;-71
2021/01/09 01:04:38;;;;;;;6.50;3.00;;;1.70;95.10;;;;;;5022902;28;20045;-72
2021/01/09 01:07:05;;;;;;;6.17;3.03;;;1.70;95.10;;;;;;5022202;28;20041;-71
2021/01/09 01:09:31;;;;;;;7.20;3.43;;;1.70;95.10;;;;;;5012424;28;20049;-72
2021/01/09 01:11:58;;;;;;;5.30;2.63;;;1.70;95.10;;;;;;5009117;28;20041;-72
2021/01/09 01:14:24;;;;;;;7.03;3.10;;;1.70;95.10;;;;;;5031718;28;20056;-71
2021/01/09 01:16:51;;;;;;;6.03;2.70;;;1.70;95.10;;;;;;5023084;28;20494;-71
2021/01/09 01:19:17;;;;;;;7.90;3.90;;;1.60;95.10;;;;;;5016512;28;20053;-71
2021/01/09 01:21:44;;;;;;;9.63;4.30;;;1.70;95.10;;;;;;5024050;28;20038;-71
2021/01/09 01:24:10;;;;;;;7.17;3.57;;;1.60;95.10;;;;;;4978260;28;20046;-71
2021/01/09 01:26:38;;;;;;;9.00;4.30;;;1.60;95.10;;;;;;5021900;28;20394;-72
2021/01/09 01:29:05;;;;;;;8.53;4.00;;;1.60;95.10;;;;;;5023405;28;20044;-71
2021/01/09 01:31:31;;;;;;;6.63;3.37;;;1.60;95.10;;;;;;5020174;28;20041;-72
2021/01/09 01:33:58;;;;;;;8.07;3.37;;;1.60;95.10;;;;;;5012822;28;20045;-72
2021/01/09 01:36:25;;;;;;;9.17;3.70;;;1.60;95.10;;;;;;4988006;28;20076;-72
2021/01/09 01:38:51;;;;;;;9.67;4.53;;;1.60;95.10;;;;;;5013778;28;20054;-72
2021/01/09 01:41:17;;;;;;;9.37;4.00;;;1.50;95.10;;;;;;5013583;28;20127;-71
2021/01/09 01:43:44;;;;;;;7.60;3.37;;;1.50;95.10;;;;;;4992843;28;20669;-71
2021/01/09 01:46:12;;;;;;;10.07;4.20;;;1.50;95.10;;;;;;5017131;28;20030;-72
2021/01/09 01:48:38;;;;;;;7.13;3.47;;;1.40;95.10;;;;;;5009178;28;20045;-72
2021/01/09 01:51:05;;;;;;;7.23;3.30;;;1.40;95.10;;;;;;5024054;28;20041;-71
2021/01/09 01:53:33;;;;;;;6.53;3.13;;;1.40;95.10;;;;;;5021190;28;20037;-71
2021/01/09 01:55:59;;;;;;;7.60;3.23;;;1.40;95.10;;;;;;5028351;28;20075;-72
2021/01/09 01:58:26;;;;;;;6.03;3.07;;;1.40;95.20;;;;;;5012297;28;20548;-72
2021/01/09 02:00:53;;;;;;;7.53;2.90;;;1.40;95.20;;;;;;5026799;28;20494;-71
2021/01/09 02:03:21;;;;;;;8.20;3.17;;;1.30;95.20;;;;;;5009721;28;20501;-71
2021/01/09 02:06:00;;;;;;;6.33;2.50;;;1.30;95.20;;;;;;4990950;28;20636;-72
2021/01/09 02:08:30;;;;;;;4.67;2.20;;;1.40;95.30;;;;;;5009291;28;20042;-72
2021/01/09 02:11:00;;;;;;;9.10;3.60;;;1.40;95.20;;;;;;5006360;28;20410;-71
2021/01/09 02:13:47;;;;;;;6.37;2.60;;;1.40;95.20;;;;;;5043265;28;20046;-71
2021/01/09 02:16:15;;;;;;;5.87;3.03;;;1.40;95.20;;;;;;5012109;28;20053;-71
2021/01/09 02:18:43;;;;;;;4.73;2.23;;;1.40;95.20;;;;;;5013601;28;20046;-71
2021/01/09 02:21:37;;;;;;;4.77;2.13;;;1.40;95.20;;;;;;5013434;28;20112;-71
2021/01/09 02:24:11;;;;;;;4.10;2.30;;;1.40;95.20;;;;;;5010291;28;20497;-71
2021/01/09 02:26:38;;;;;;;6.20;3.03;;;1.40;95.20;;;;;;5013452;28;20378;-71
2021/01/09 02:29:05;;;;;;;5.03;2.87;;;1.40;95.20;;;;;;5012854;28;20046;-71
2021/01/09 02:31:40;;;;;;;7.27;4.00;;;1.40;95.20;;;;;;5013368;28;20457;-71
2021/01/09 02:34:10;;;;;;;5.70;3.40;;;1.40;95.20;;;;;;5034375;28;20046;-72
2021/01/09 02:36:41;;;;;;;6.10;3.17;;;1.30;95.10;;;;;;5009069;28;20076;-71
2021/01/09 02:39:08;;;;;;;5.30;2.60;;;1.30;95.10;;;;;;5012361;28;20042;-71
2021/01/09 02:41:36;;;;;;;4.97;2.87;;;1.30;95.20;;;;;;5010158;28;20034;-72
2021/01/09 02:44:09;;;;;;;4.23;2.10;;;1.30;95.20;;;;;;5005008;28;20042;-72
2021/01/09 02:46:38;;;;;;;;;;;1.30;95.20;;;;;;5014037;28;20041;-72
2021/01/09 02:49:06;;;;;;;4.17;1.97;;;1.20;95.20;;;;;;5009383;28;19928;-72
2021/01/09 02:51:33;;;;;;;4.20;2.10;;;1.20;95.20;;;;;;5032373;28;20053;-72
2021/01/09 02:54:00;;;;;;;2.80;1.43;;;1.20;95.20;;;;;;5012002;28;20049;-72
2021/01/09 02:56:27;;;;;;;3.73;1.50;;;1.10;95.20;;;;;;5011907;28;20453;-71
2021/01/09 02:58:53;;;;;;;3.63;1.80;;;1.10;95.20;;;;;;5013597;28;20041;-71
2021/01/09 03:01:20;;;;;;;4.77;2.37;;;1.10;95.30;;;;;;4994079;28;20033;-71
2021/01/09 03:03:46;;;;;;;4.23;1.97;;;1.10;95.30;;;;;;5012441;28;20120;-72
2021/01/09 03:06:13;;;;;;;4.50;1.90;;;1.10;95.30;;;;;;5037829;28;20060;-72
2021/01/09 03:08:39;;;;;;;5.20;2.10;;;1.10;95.30;;;;;;5013129;28;20125;-71
2021/01/09 03:11:06;;;;;;;4.93;2.07;;;1.10;95.30;;;;;;4996180;28;20041;-71
2021/01/09 03:13:32;;;;;;;3.17;1.57;;;1.10;95.20;;;;;;5013063;28;20454;-71
2021/01/09 03:15:59;;;;;;;3.40;1.47;;;1.10;95.20;;;;;;4996269;28;20502;-71
2021/01/09 03:18:27;;;;;;;3.57;1.80;;;1.00;95.30;;;;;;4996659;28;20061;-72
2021/01/09 03:20:53;;;;;;;3.80;1.57;;;1.00;95.30;;;;;;5025788;28;20498;-71
2021/01/09 03:23:20;;;;;;;3.50;1.63;;;1.10;95.30;;;;;;5012923;28;20052;-72
2021/01/09 03:25:46;;;;;;;4.13;1.63;;;1.00;95.30;;;;;;5012609;28;20509;-72
2021/01/09 03:28:12;;;;;;;4.83;1.70;;;1.00;95.30;;;;;;4988529;28;20097;-72
2021/01/09 03:30:39;;;;;;;4.97;1.40;;;1.00;95.30;;;;;;5003642;28;20387;-72
2021/01/09 03:33:06;;;;;;;5.07;2.20;;;1.00;95.30;;;;;;5011777;28;20042;-72
2021/01/09 03:35:33;;;;;;;3.83;1.90;;;1.00;95.30;;;;;;5012276;28;20437;-71
2021/01/09 03:37:59;;;;;;;4.10;2.00;;;1.00;95.30;;;;;;4987854;28;20162;-72
2021/01/09 03:40:26;;;;;;;4.10;1.93;;;1.00;95.30;;;;;;5011512;28;20397;-72
2021/01/09 03:42:52;;;;;;;3.93;2.30;;;1.00;95.40;;;;;;5011646;28;20121;-72
2021/01/09 03:45:19;;;;;;;5.10;1.90;;;1.00;95.30;;;;;;4999997;28;20038;-72
2021/01/09 03:47:45;;;;;;;3.07;1.70;;;1.00;95.30;;;;;;4995299;28;20560;-72
2021/01/09 03:50:12;;;;;;;4.27;1.70;;;1.00;95.30;;;;;;5010773;28;20108;-72
2021/01/09 03:52:39;;;;;;;3.83;1.97;;;1.00;95.30;;;;;;5011420;28;20477;-72
2021/01/09 03:55:06;;;;;;;3.97;2.13;;;0.90;95.30;;;;;;5011332;28;20422;-72
2021/01/09 03:57:32;;;;;;;4.10;2.00;;;0.90;95.30;;;;;;5011473;28;20529;-72
2021/01/09 03:59:59;;;;;;;4.63;2.53;;;0.90;95.30;;;;;;5016712;28;20493;-71
2021/01/09 04:02:25;;;;;;;4.60;2.47;;;0.90;95.30;;;;;;4985887;28;20038;-72
2021/01/09 04:04:51;;;;;;;4.00;2.10;;;0.90;95.30;;;;;;5012109;28;20494;-71
2021/01/09 04:07:19;;;;;;;4.60;2.10;;;0.90;95.30;;;;;;5021171;28;20042;-72
2021/01/09 04:09:45;;;;;;;3.20;1.50;;;0.80;95.30;;;;;;5012494;28;20053;-72
2021/01/09 04:12:12;;;;;;;3.83;1.70;;;0.80;95.30;;;;;;5011582;28;20124;-72
2021/01/09 04:14:38;;;;;;;2.63;1.20;;;0.90;95.30;;;;;;5011076;28;20056;-71
2021/01/09 04:17:05;;;;;;;3.90;1.60;;;0.80;95.30;;;;;;5011639;28;20050;-71
2021/01/09 04:19:31;;;;;;;4.13;1.90;;;0.80;95.30;;;;;;4991830;28;20100;-71
2021/01/09 04:21:59;;;;;;;3.50;1.43;;;0.80;95.30;;;;;;5010700;28;20070;-72
2021/01/09 04:24:25;;;;;;;4.27;2.30;;;0.80;95.30;;;;;;5011120;28;20038;-72
2021/01/09 04:26:57;;;;;;;4.33;2.90;;;0.80;95.40;;;;;;5012672;28;20034;-72
2021/01/09 04:29:24;;;;;;;4.73;2.77;;;0.80;95.40;;;;;;5016039;28;20092;-71
2021/01/09 04:31:51;;;;;;;8.70;4.87;;;0.80;95.40;;;;;;5011294;28;20041;-72
2021/01/09 04:34:19;;;;;;;6.20;3.93;;;0.80;95.40;;;;;;5011038;28;20053;-72
2021/01/09 04:36:46;;;;;;;6.03;3.47;;;0.80;95.40;;;;;;5011253;28;20117;-71
2021/01/09 04:39:15;;;;;;;6.87;3.60;;;0.80;95.40;;;;;;5010748;28;20144;-72
2021/01/09 04:41:42;;;;;;;6.73;3.17;;;0.80;95.40;;;;;;5011367;28;20049;-72
2021/01/09 04:44:11;;;;;;;6.80;3.77;;;0.80;95.30;;;;;;5012424;28;20100;-71
2021/01/09 04:46:59;;;;;;;7.07;3.50;;;0.80;95.40;;;;;;5010053;28;20386;-72
2021/01/09 04:49:29;;;;;;;6.57;4.27;;;0.80;95.30;;;;;;5014895;28;20422;-72
2021/01/09 04:52:00;;;;;;;;;;;0.80;95.40;;;;;;5011006;28;20037;-71
2021/01/09 04:54:26;;;;;;;8.37;4.70;;;0.70;95.40;;;;;;5010773;28;20370;-71
2021/01/09 04:56:55;;;;;;;7.90;4.10;;;0.70;95.30;;;;;;4985475;28;20052;-71
2021/01/09 04:59:23;;;;;;;7.40;3.70;;;0.70;95.40;;;;;;5026668;28;20066;-72
2021/01/09 05:01:51;;;;;;;6.63;3.50;;;0.70;95.40;;;;;;5011241;28;20050;-72
2021/01/09 05:04:20;;;;;;;4.50;2.90;;;0.70;95.40;;;;;;5010418;28;20429;-72
2021/01/09 05:06:47;;;;;;;5.47;2.87;;;0.70;95.40;;;;;;5010716;28;20438;-72
2021/01/09 05:09:15;;;;;;;5.53;2.47;;;0.70;95.40;;;;;;5011248;28;20046;-72
2021/01/09 05:11:45;;;;;;;3.77;1.93;;;0.70;95.40;;;;;;5006302;28;20093;-72
2021/01/09 05:14:12;;;;;;;3.50;1.70;;;0.70;95.40;;;;;;4992175;28;20050;-72
2021/01/09 05:16:39;;;;;;;3.83;1.90;;;0.70;95.30;;;;;;5011735;28;20045;-71
2021/01/09 05:19:07;;;;;;;4.20;2.53;;;0.70;95.40;;;;;;5031762;28;20513;-71
2021/01/09 05:21:36;;;;;;;4.07;2.10;;;0.60;95.40;;;;;;5042756;28;20045;-72
2021/01/09 05:24:09;;;;;;;3.97;1.77;;;0.60;95.70;;;;;;5010807;28;20120;-72
2021/01/09 05:26:37;;;;;;;4.10;1.70;;;0.60;95.40;;;;;;5010409;28;20108;-72
2021/01/09 05:29:05;;;;;;;3.33;1.53;;;0.60;95.40;;;;;;5011206;28;20092;-71
2021/01/09 05:31:35;;;;;;;4.50;1.53;;;0.60;95.40;;;;;;4990571;28;20046;-71
2021/01/09 05:34:04;;;;;;;3.73;1.73;;;0.60;95.40;;;;;;5005747;28;20060;-72
2021/01/09 05:36:32;;;;;;;3.67;1.80;;;0.50;95.30;;;;;;5010943;28;20069;-72
2021/01/09 05:38:59;;;;;;;3.00;1.63;;;0.50;95.60;;;;;;4994074;28;20053;-72
2021/01/09 05:41:26;;;;;;;4.00;1.90;;;0.50;95.40;;;;;;5015175;28;20059;-72
2021/01/09 05:44:01;;;;;;;3.20;1.40;;;0.50;95.40;;;;;;5015032;28;20478;-72
2021/01/09 05:46:36;;;;;;;2.57;1.27;;;0.50;95.40;;;;;;5023834;28;20074;-72
2021/01/09 05:49:05;;;;;;;2.97;1.23;;;0.50;95.40;;;;;;5009975;28;20050;-73
2021/01/09 05:51:34;;;;;;;1.93;1.10;;;0.50;95.40;;;;;;5037605;28;20050;-73
2021/01/09 05:54:01;;;;;;;3.10;1.40;;;0.50;95.40;;;;;;5014239;28;20080;-72
2021/01/09 05:56:28;;;;;;;3.40;1.37;;;0.50;95.50;;;;;;5013995;28;20068;-72
2021/01/09 05:58:55;;;;;;;3.03;1.20;;;0.50;95.50;;;;;;5015796;28;20053;-73
2021/01/09 06:01:27;;;;;;;2.50;1.00;;;0.50;95.50;;;;;;4997332;28;20803;-73
2021/01/09 06:04:05;;;;;;;2.20;1.10;;;0.50;95.40;;;;;;5013720;28;20049;-73
2021/01/09 06:06:45;;;;;;;3.00;1.30;;;0.50;95.40;;;;;;5027475;28;20479;-72
2021/01/09 06:09:25;;;;;;;4.50;1.60;;;0.50;95.40;;;;;;5015840;28;20402;-72
2021/01/09 06:11:55;;;;;;;3.23;1.60;;;0.50;95.50;;;;;;5014951;28;20399;-72
2021/01/09 06:14:27;;;;;;;4.33;2.07;;;0.60;95.50;;;;;;5015348;28;20042;-72
2021/01/09 06:16:55;;;;;;;2.70;1.67;;;0.50;95.40;;;;;;5015051;28;20049;-72
2021/01/09 06:19:22;;;;;;;3.33;1.40;;;0.60;95.50;;;;;;5008033;28;20425;-72
2021/01/09 06:21:50;;;;;;;4.37;2.10;;;0.60;95.40;;;;;;5028538;28;20536;-72
2021/01/09 06:24:21;;;;;;;4.17;1.87;;;0.60;95.70;;;;;;5013670;28;20056;-72
2021/01/09 06:26:48;;;;;;;4.27;1.47;;;0.70;95.50;;;;;;5041920;28;20398;-72
2021/01/09 06:29:23;;;;;;;3.33;1.60;;;0.70;95.40;;;;;;5013225;28;20046;-71
2021/01/09 06:31:56;;;;;;;4.33;1.80;;;0.70;95.50;;;;;;5013819;28;20093;-72
2021/01/09 06:34:28;;;;;;;6.30;4.00;;;0.70;95.50;;;;;;5014623;28;20049;-71
2021/01/09 06:36:59;;;;;;;9.93;3.00;;;0.80;95.50;;;;;;5014612;28;20042;-72
2021/01/09 06:39:30;;;;;;;6.07;3.40;;;0.90;95.50;;;;;;5014516;28;20046;-72
2021/01/09 06:42:00;;;;;;;7.90;4.83;;;0.90;95.50;;;;;;5034015;28;20097;-72
2021/01/09 06:44:27;;;;;;;9.10;4.97;;;1.00;95.40;;;;;;5006684;28;20042;-72
2021/01/09 06:46:54;;;;;;;11.17;5.63;;;1.10;95.40;;;;;;4996017;28;20498;-72
2021/01/09 06:49:23;;;;;;;8.27;4.37;;;1.10;95.30;;;;;;5038941;28;20520;-72
2021/01/09 06:51:52;;;;;;;7.27;4.53;;;1.10;95.30;;;;;;5008928;28;20559;-71
2021/01/09 06:54:19;;;;;;;10.60;4.70;;;1.10;95.30;;;;;;5013881;28;20096;-72
2021/01/09 06:56:47;;;;;;;7.97;4.13;;;1.10;95.30;;;;;;4990260;28;20438;-72
2021/01/09 06:59:31;;;;;;;6.30;3.50;;;1.10;95.30;;;;;;5014329;28;20445;-72
2021/01/09 07:02:18;;;;;;;5.93;3.37;;;1.10;95.30;;;;;;5010629;28;20041;-72
2021/01/09 07:04:58;;;;;;;6.27;3.10;;;1.10;95.30;;;;;;5009381;28;20446;-72
2021/01/09 07:07:53;;;;;;;6.57;3.27;;;1.10;95.30;;;;;;5008873;28;20050;-72
2021/01/09 07:10:23;;;;;;;6.13;3.20;;;1.10;95.30;;;;;;5006244;28;20145;-72
2021/01/09 07:13:05;;;;;;;9.20;3.77;;;1.10;95.30;;;;;;5013142;28;20470;-72
2021/01/09 07:15:36;;;;;;;6.23;3.57;;;1.10;95.60;;;;;;5011988;28;20084;-72
2021/01/09 07:18:04;;;;;;;7.27;3.20;;;1.10;95.40;;;;;;5013899;28;20045;-72
2021/01/09 07:20:38;;;;;;;6.10;2.83;;;1.10;95.40;;;;;;5012874;28;20080;-72
2021/01/09 07:23:12;;;;;;;5.63;2.67;;;1.10;95.40;;;;;;5012481;28;20056;-72
2021/01/09 07:25:41;;;;;;;4.70;2.10;;;1.20;95.50;;;;;;5014010;28;20050;-72
2021/01/09 07:28:21;;;;;;;5.27;2.23;;;1.20;95.40;;;;;;5033332;28;20046;-72
2021/01/09 07:31:01;;;;;;;5.07;2.13;;;1.30;95.40;;;;;;5013488;28;20449;-73
2021/01/09 07:33:31;;;;;;;5.97;2.07;;;1.30;95.70;;;;;;5009394;28;20048;-73
2021/01/09 07:36:01;;;;;;;4.57;1.83;;;1.40;95.40;;;;;;5013626;28;20053;-74
2021/01/09 07:38:28;;;;;;;3.80;1.70;;;1.40;95.40;;;;;;4993325;28;20046;-73
2021/01/09 07:40:56;;;;;;;4.10;1.50;;;1.40;95.40;;;;;;5012584;28;20050;-73
2021/01/09 07:43:44;;;;;;;4.27;1.70;;;1.50;95.40;;;;;;5012153;28;20088;-73
2021/01/09 07:46:25;;;;;;;7.43;2.07;;;1.50;95.30;;;;;;5040698;28;20510;-74
2021/01/09 07:48:52;;;;;;;4.80;1.80;;;1.50;95.30;;;;;;5005130;28;20044;-73
2021/01/09 07:51:40;;;;;;;5.70;1.47;;;1.50;95.20;;;;;;5036953;28;20432;-73
2021/01/09 07:54:06;;;;;;;3.43;1.50;;;1.50;95.20;;;;;;4998542;28;20050;-73
2021/01/09 07:56:37;;;;;;;4.13;1.40;;;1.50;95.30;;;;;;5010685;28;20053;-73
2021/01/09 07:59:05;;;;;;;3.20;1.57;;;1.50;95.30;;;;;;4995647;28;20476;-73
2021/01/09 08:01:41;;;;;;;5.27;1.47;;;1.50;95.30;;;;;;5011642;28;20057;-72
2021/01/09 08:04:11;;;;;;;3.53;1.30;;;1.60;95.30;;;;;;5044241;28;20066;-73
2021/01/09 08:06:38;;;;;;;3.27;1.40;;;1.60;95.40;;;;;;5010938;28;20508;-73
2021/01/09 08:09:07;;;;;;;4.77;1.50;;;1.70;95.40;;;;;;5012382;28;20441;-73
2021/01/09 08:11:46;;;;;;;3.83;1.73;;;1.80;95.40;;;;;;5045143;28;20049;-72
2021/01/09 08:14:13;;;;;;;4.20;1.70;;;1.80;95.30;;;;;;5011558;28;20092;-73
2021/01/09 08:16:40;;;;;;;2.50;1.50;;;1.80;95.30;;;;;;5011465;28;20096;-72
2021/01/09 08:19:14;;;;;;;4.27;1.73;;;1.90;95.30;;;;;;5011544;28;20046;-72
2021/01/09 08:21:41;;;;;;;4.10;2.37;;;2.00;95.30;;;;;;5011063;28;20490;-74
2021/01/09 08:24:08;;;;;;;4.40;2.07;;;2.00;95.20;;;;;;5012942;28;20041;-72
2021/01/09 08:26:35;;;;;;;5.37;2.40;;;2.00;95.20;;;;;;4994978;28;20089;-73
2021/01/09 08:29:02;;;;;;;9.37;4.43;;;2.00;95.10;;;;;;4977881;28;20065;-72
2021/01/09 08:31:32;;;;;;;9.43;4.13;;;2.00;95.10;;;;;;5012805;28;20441;-72
2021/01/09 08:34:00;;;;;;;5.87;3.07;;;2.10;95.10;;;;;;5011185;28;20049;-72
2021/01/09 08:36:26;;;;;;;6.50;3.13;;;2.10;95.10;;;;;;5010616;28;20053;-72
2021/01/09 08:38:53;;;;;;;5.57;2.53;;;2.10;95.10;;;;;;5010836;28;20034;-72
2021/01/09 08:41:20;;;;;;;4.70;2.33;;;2.10;95.10;;;;;;4992382;28;20046;-72
2021/01/09 08:43:46;;;;;;;4.30;2.40;;;2.00;95.20;;;;;;5011334;28;20049;-72
2021/01/09 08:46:13;;;;;;;4.67;1.90;;;2.10;95.20;;;;;;5010789;28;20046;-72
2021/01/09 08:48:43;;;;;;;4.13;1.87;;;2.20;95.20;;;;;;4982250;28;20774;-72
2021/01/09 08:51:14;;;;;;;3.47;1.60;;;2.30;95.20;;;;;;4994274;28;20100;-72
2021/01/09 08:53:59;;;;;;;4.93;2.37;;;2.30;95.20;;;;;;4994549;28;20087;-71
2021/01/09 08:56:29;;;;;;;4.47;2.13;;;2.40;95.20;;;;;;5010712;28;20492;-72
2021/01/09 08:59:01;;;;;;;4.33;2.33;;;2.50;95.10;;;;;;5014619;28;20080;-71
2021/01/09 09:01:40;;;;;;;5.78;2.83;;;2.50;95.10;;;;;;5011804;28;20132;-72
2021/01/09 09:04:08;;;;;;;5.73;2.60;;;2.60;95.00;;;;;;5036964;28;20044;-72
2021/01/09 09:06:38;;;;;;;5.17;2.90;;;2.60;95.00;;;;;;5010445;28;20084;-71
2021/01/09 09:09:05;;;;;;;5.37;2.67;;;2.60;94.90;;;;;;5011117;28;20053;-71
2021/01/09 09:11:31;;;;;;;5.77;3.43;;;2.70;94.90;;;;;;5010808;28;20462;-71
2021/01/09 09:14:09;;;;;;;9.23;4.17;;;2.70;94.90;;;;;;5034496;28;20053;-72
2021/01/09 09:16:38;;;;;;;5.70;2.87;;;2.70;94.80;;;;;;5001248;28;20096;-72
2021/01/09 09:19:09;;;;;;;6.00;3.30;;;2.70;94.90;;;;;;5010916;28;20041;-71
2021/01/09 09:21:47;;;;;;;6.60;2.63;;;2.70;94.80;;;;;;5010378;28;20129;-72
2021/01/09 09:24:16;;;;;;;4.07;2.37;;;2.70;94.80;;;;;;5011701;28;20034;-73
2021/01/09 09:26:43;;;;;;;5.20;2.07;;;2.70;94.90;;;;;;5010191;28;20132;-71
2021/01/09 09:29:13;;;;;;;4.20;2.00;;;2.70;94.80;;;;;;5010320;28;20096;-71
2021/01/09 09:31:43;;;;;;;5.90;2.17;;;2.70;94.90;;;;;;5009986;28;20060;-71
2021/01/09 09:34:12;;;;;;;3.67;1.43;;;2.70;95.10;;;;;;5011712;28;20037;-71
2021/01/09 09:36:47;;;;;;;3.97;1.70;;;2.70;94.80;;;;;;5011417;28;20041;-72
2021/01/09 09:39:19;;;;;;;3.57;1.70;;;2.70;94.80;;;;;;5011888;28;20045;-71
2021/01/09 09:41:58;;;;;;;3.20;1.57;;;2.60;94.80;;;;;;4993231;28;20391;-71
2021/01/09 09:44:40;;;;;;;3.37;1.53;;;2.50;94.80;;;;;;5010536;28;20045;-71
2021/01/09 09:47:24;;;;;;;4.10;1.83;;;2.50;94.80;;;;;;5011135;28;20089;-71
2021/01/09 09:50:08;;;;;;;4.27;1.80;;;2.40;94.90;;;;;;5010932;28;20050;-71
2021/01/09 09:52:35;;;;;;;3.40;1.40;;;2.30;94.90;;;;;;5008621;28;20046;-71
2021/01/09 09:55:05;;;;;;;3.50;1.43;;;2.30;95.00;;;;;;5011606;28;20081;-72
2021/01/09 09:57:32;;;;;;;2.37;1.10;;;2.30;95.00;;;;;;5011754;28;20045;-71
2021/01/09 10:00:15;;;;;;;3.10;1.33;;;2.30;95.10;;;;;;4994511;28;20040;-72
2021/01/09 10:02:55;;;;;;;4.60;1.30;;;2.30;95.10;;;;;;5000561;28;20059;-71
2021/01/09 10:05:23;;;;;;;2.77;1.20;;;2.30;95.10;;;;;;5012755;28;20149;-72
2021/01/09 10:07:50;;;;;;;2.83;1.40;;;2.30;95.10;;;;;;5042363;28;20409;-72
2021/01/09 10:10:20;;;;;;;2.47;1.03;;;2.40;95.10;;;;;;4978710;28;20042;-76
2021/01/09 10:12:57;;;;;;;2.87;1.20;;;2.50;95.10;;;;;;5010118;28;20092;-75
2021/01/09 10:15:25;;;;;;;7.17;1.83;;;2.60;95.10;;;;;;5009418;28;20502;-75
2021/01/09 10:17:59;;;;;;;4.93;1.40;;;2.70;95.10;;;;;;4997846;28;20042;-76
2021/01/09 10:20:26;;;;;;;2.57;1.10;;;2.80;95.00;;;;;;5019212;28;20556;-76
2021/01/09 10:22:56;;;;;;;4.30;1.70;;;2.90;94.90;;;;;;5012526;28;20038;-76
2021/01/09 10:25:23;;;;;;;7.27;2.13;;;3.00;94.80;;;;;;5014888;28;20046;-77
2021/01/09 10:27:51;;;;;;;4.90;2.30;;;3.00;94.70;;;;;;4994339;28;20042;-76
2021/01/09 10:30:19;;;;;;;6.50;3.13;;;3.00;94.60;;;;;;5013097;28;20040;-75
2021/01/09 10:32:45;;;;;;;5.93;2.07;;;2.90;94.50;;;;;;5012543;28;20050;-75
2021/01/09 10:35:13;;;;;;;5.37;2.80;;;2.80;94.50;;;;;;4994057;28;20376;-74
2021/01/09 10:37:39;;;;;;;5.80;3.03;;;2.80;94.60;;;;;;5023459;28;20041;-74
2021/01/09 10:40:07;;;;;;;5.40;2.20;;;2.70;94.60;;;;;;5028191;28;20527;-74
2021/01/09 10:42:33;;;;;;;3.93;1.90;;;2.60;94.90;;;;;;5022495;28;20435;-74
2021/01/09 10:45:00;;;;;;;4.93;1.90;;;2.60;94.70;;;;;;5014765;28;20034;-75
2021/01/09 10:47:27;;;;;;;3.23;1.40;;;2.60;94.80;;;;;;5020727;28;20062;-75
2021/01/09 10:50:13;;;;;;;4.07;1.50;;;2.50;94.80;;;;;;5019038;28;20077;-75
2021/01/09 10:52:40;;;;;;;4.37;1.83;;;2.50;94.90;;;;;;5014951;28;20069;-73
2021/01/09 10:55:07;;;;;;;2.70;1.13;;;2.50;94.90;;;;;;5019130;28;20519;-77
2021/01/09 10:57:33;;;;;;;3.10;1.73;;;2.60;94.90;;;;;;5019129;28;20103;-77
2021/01/09 11:00:00;;;;;;;3.77;1.50;;;2.60;94.90;;;;;;5019672;28;20081;-76
2021/01/09 11:02:27;;;;;;;5.00;1.87;;;2.60;94.90;;;;;;5015613;28;20401;-78
2021/01/09 11:04:54;;;;;;;4.07;1.87;;;2.70;94.80;;;;;;4999711;28;20046;-76
2021/01/09 11:07:20;;;;;;;2.87;1.43;;;2.70;94.80;;;;;;5011548;28;20042;-77
2021/01/09 11:09:47;;;;;;;2.90;1.53;;;2.80;94.80;;;;;;5008899;28;20136;-77
2021/01/09 11:12:14;;;;;;;2.70;1.13;;;2.90;94.90;;;;;;5024395;28;20127;-77
2021/01/09 11:14:41;;;;;;;2.50;0.93;;;3.00;94.90;;;;;;4998218;28;20041;-77
2021/01/09 11:17:07;;;;;;;3.67;2.47;;;3.10;94.90;;;;;;5015401;28;20046;-84
2021/01/09 11:19:34;;;;;;;5.43;1.87;;;3.20;94.80;;;;;;4994690;28;20465;-77
2021/01/09 11:22:01;;;;;;;4.87;1.20;;;3.30;94.70;;;;;;5005414;28;20069;-78
2021/01/09 11:24:32;;;;;;;4.50;1.40;;;3.30;94.60;;;;;;5014086;28;20066;-80
2021/01/09 11:27:05;;;;;;;3.55;1.30;;;3.30;94.60;;;;;;5015129;28;20057;-78
2021/01/09 11:29:33;;;;;;;3.23;1.30;;;3.30;94.60;;;;;;5015067;28;20398;-77
2021/01/09 11:32:00;;;;;;;4.90;1.60;;;3.40;94.70;;;;;;5014895;28;20037;-77
2021/01/09 11:34:28;;;;;;;4.23;1.40;;;3.40;94.70;;;;;;5014621;28;20057;-75
2021/01/09 11:36:55;;;;;;;2.87;1.33;;;3.50;94.70;;;;;;5013690;28;20506;-79
2021/01/09 11:39:23;;;;;;;3.83;1.67;;;3.60;94.70;;;;;;4997033;28;20076;-78
2021/01/09 11:41:49;;;;;;;6.73;1.63;;;3.70;94.70;;;;;;5012593;28;20042;-83
2021/01/09 11:44:16;;;;;;;2.93;1.10;;;3.70;94.90;;;;;;4997013;28;20042;-75
2021/01/09 11:46:44;;;;;;;6.83;2.40;;;3.80;94.60;;;;;;5013334;28;20038;-77
2021/01/09 11:49:10;;;;;;;6.70;3.10;;;4.00;94.50;;;;;;5012830;28;20108;-76
2021/01/09 11:51:39;;;;;;;6.17;2.50;;;4.00;94.40;;;;;;5013180;28;20446;-77
2021/01/09 11:54:05;;;;;;;8.30;4.73;;;4.10;94.40;;;;;;5014184;28;20034;-76
2021/01/09 11:56:56;;;;;;;7.77;3.13;;;4.10;94.30;;;;;;5022258;28;20037;-75
2021/01/09 11:59:23;;;;;;;7.27;3.33;;;4.10;94.30;;;;;;5018970;28;20049;-75
2021/01/09 12:01:50;;;;;;;6.73;3.03;;;4.00;94.30;;;;;;5012539;28;20112;-76
2021/01/09 12:04:17;;;;;;;7.03;1.90;;;4.00;94.30;;;;;;5012611;28;20065;-75
2021/01/09 12:06:43;;;;;;;7.43;3.10;;;4.00;94.40;;;;;;5015569;28;20038;-76
2021/01/09 12:09:11;;;;;;;5.40;2.00;;;4.00;94.50;;;;;;5013779;28;20045;-77
2021/01/09 12:11:37;;;;;;;4.67;1.50;;;3.90;94.50;;;;;;4996525;28;20066;-76
2021/01/09 12:14:05;;;;;;;4.90;1.70;;;3.90;94.50;;;;;;5012036;28;20045;-75
2021/01/09 12:16:34;;;;;;;3.57;1.47;;;4.00;94.50;;;;;;4976859;28;20035;-75
2021/01/09 12:19:01;;;;;;;7.13;1.43;;;4.00;94.50;;;;;;5005014;28;20034;-74
2021/01/09 12:21:30;;;;;;;5.87;1.20;;;4.00;94.50;;;;;;5012508;28;20034;-70
2021/01/09 12:24:01;;;;;;;2.43;1.00;;;4.00;94.50;;;;;;4993643;28;20046;-75
2021/01/09 12:26:27;;;;;;;6.63;1.47;;;4.00;94.50;;;;;;5012393;28;20121;-75
2021/01/09 12:28:54;;;;;;;3.40;1.33;;;4.10;94.50;;;;;;4996399;28;20061;-74
2021/01/09 12:31:35;;;;;;;2.73;1.10;;;4.20;94.50;;;;;;5013502;28;20042;-75
2021/01/09 12:34:14;;;;;;;4.53;1.23;;;4.20;94.40;;;;;;5012595;28;20052;-76
2021/01/09 12:36:41;;;;;;;3.97;1.10;;;4.30;94.40;;;;;;5013728;28;20441;-76
2021/01/09 12:39:08;;;;;;;5.70;1.47;;;4.20;94.30;;;;;;5013734;28;20038;-76
2021/01/09 12:41:39;;;;;;;6.43;1.40;;;4.30;94.40;;;;;;5013532;28;20145;-76
2021/01/09 12:44:07;;;;;;;3.67;1.30;;;4.30;94.30;;;;;;5045093;28;20041;-75
2021/01/09 12:46:42;;;;;;;4.90;1.63;;;4.30;94.40;;;;;;5008573;28;20044;-75
2021/01/09 12:49:14;;;;;;;3.83;1.60;;;4.40;94.30;;;;;;5028437;28;20041;-73
2021/01/09 12:51:42;;;;;;;3.55;1.45;;;4.40;94.30;;;;;;5010558;28;20042;-75
2021/01/09 12:54:09;;;;;;;4.63;1.80;;;4.40;94.20;;;;;;5041331;28;20038;-77
2021/01/09 12:56:35;;;;;;;5.17;1.80;;;4.50;94.20;;;;;;5005357;28;20445;-76
2021/01/09 12:59:04;;;;;;;3.77;1.53;;;4.60;94.20;;;;;;5009668;28;20114;-69
2021/01/09 13:01:50;;;;;;;3.13;1.30;;;4.60;94.10;;;;;;5022351;28;20036;-69
2021/01/09 13:04:23;;;;;;;3.00;1.30;;;4.70;94.00;;;;;;5023588;28;20046;-75
2021/01/09 13:06:54;;;;;;;4.83;1.10;;;4.80;94.10;;;;;;5013001;28;20038;-75
2021/01/09 13:09:22;;;;;;;4.10;1.27;;;4.80;94.00;;;;;;5012817;28;20486;-69